createdAt,value
2022-11-14T00:00:51.799Z,7.42
2022-11-14T00:03:18.042Z,7.27
2022-11-14T00:05:44.277Z,7.28
2022-11-14T00:08:10.484Z,7.31
2022-11-14T00:10:36.768Z,7.45
2022-11-14T00:13:03.012Z,7.27
2022-11-14T00:15:29.280Z,7.29
2022-11-14T00:17:55.542Z,7.28
2022-11-14T00:20:21.743Z,7.23
2022-11-14T00:22:47.959Z,7.26
2022-11-14T00:25:14.167Z,7.29
2022-11-14T00:27:40.371Z,7.24
2022-11-14T00:30:06.577Z,7.19
2022-11-14T00:32:32.787Z,7.26
2022-11-14T00:35:02.894Z,7.21
2022-11-14T00:37:29.211Z,7.24
2022-11-14T00:39:55.416Z,7.23
2022-11-14T00:42:21.616Z,7.15
2022-11-14T00:44:47.808Z,7.20
2022-11-14T00:47:14.022Z,7.11
2022-11-14T00:49:40.238Z,7.08
2022-11-14T00:52:06.441Z,7.02
2022-11-14T00:54:32.656Z,7.06
2022-11-14T00:56:58.861Z,7.13
2022-11-14T00:59:25.067Z,7.17
2022-11-14T01:01:56.658Z,7.29
2022-11-14T01:04:24.040Z,7.27
2022-11-14T01:06:50.307Z,7.34
2022-11-14T01:09:16.559Z,7.28
2022-11-14T01:11:42.849Z,7.45
2022-11-14T01:14:09.053Z,7.41
2022-11-14T01:16:36.002Z,7.46
2022-11-14T01:19:02.255Z,7.44
2022-11-14T01:21:28.530Z,7.51
2022-11-14T01:23:54.754Z,7.52
2022-11-14T01:26:21.210Z,7.52
2022-11-14T01:28:47.421Z,7.50
2022-11-14T01:31:13.664Z,7.58
2022-11-14T01:33:39.877Z,7.50
2022-11-14T01:36:06.092Z,7.45
2022-11-14T01:38:32.544Z,7.56
2022-11-14T01:40:58.912Z,7.53
2022-11-14T01:43:25.139Z,7.50
2022-11-14T01:45:51.407Z,7.51
2022-11-14T01:48:17.677Z,7.53
2022-11-14T01:50:43.911Z,7.47
2022-11-14T01:53:10.124Z,7.59
2022-11-14T01:55:36.379Z,7.55
2022-11-14T01:58:02.611Z,7.44
2022-11-14T02:00:28.846Z,7.40
2022-11-14T02:02:55.070Z,7.44
2022-11-14T02:05:21.329Z,7.41
2022-11-14T02:07:48.058Z,7.46
2022-11-14T02:10:14.352Z,7.29
2022-11-14T02:12:40.669Z,7.44
2022-11-14T02:15:06.910Z,7.41
2022-11-14T02:17:33.131Z,7.43
2022-11-14T02:20:03.757Z,7.43
2022-11-14T02:22:31.422Z,7.35
2022-11-14T02:24:57.642Z,7.43
2022-11-14T02:27:23.934Z,7.45
2022-11-14T02:29:50.213Z,7.31
2022-11-14T02:32:16.480Z,7.37
2022-11-14T02:34:42.673Z,7.37
2022-11-14T02:37:08.910Z,7.38
2022-11-14T02:39:35.380Z,7.38
2022-11-14T02:42:01.602Z,7.44
2022-11-14T02:44:27.834Z,7.50
2022-11-14T02:46:54.109Z,7.46
2022-11-14T02:49:20.414Z,7.51
2022-11-14T02:51:46.638Z,7.55
2022-11-14T02:54:13.083Z,7.53
2022-11-14T02:56:39.356Z,7.49
2022-11-14T02:59:05.561Z,7.52
2022-11-14T03:01:32.058Z,7.63
2022-11-14T03:03:58.339Z,7.51
2022-11-14T03:06:24.753Z,7.58
2022-11-14T03:08:51.013Z,7.66
2022-11-14T03:11:17.247Z,7.54
2022-11-14T03:13:43.467Z,7.53
2022-11-14T03:16:09.691Z,7.66
2022-11-14T03:18:35.917Z,7.65
2022-11-14T03:21:02.137Z,7.73
2022-11-14T03:23:28.398Z,7.68
2022-11-14T03:25:54.623Z,7.72
2022-11-14T03:28:20.922Z,7.77
2022-11-14T03:30:47.251Z,7.74
2022-11-14T03:33:13.536Z,7.90
2022-11-14T03:35:39.805Z,7.91
2022-11-14T03:38:06.134Z,7.92
2022-11-14T03:40:32.474Z,8.01
2022-11-14T03:42:58.795Z,7.99
2022-11-14T03:45:25.002Z,8.06
2022-11-14T03:47:51.324Z,8.13
2022-11-14T03:50:17.643Z,8.03
2022-11-14T03:52:43.859Z,8.07
2022-11-14T03:55:10.201Z,8.06
2022-11-14T03:57:36.446Z,8.07
2022-11-14T04:00:02.761Z,8.03
2022-11-14T04:02:28.990Z,8.04
2022-11-14T04:04:55.406Z,8.07
2022-11-14T04:07:21.728Z,8.10
2022-11-14T04:09:48.025Z,8.10
2022-11-14T04:12:15.866Z,8.10
2022-11-14T04:14:42.385Z,8.08
2022-11-14T04:17:08.668Z,8.17
2022-11-14T04:19:34.890Z,8.25
2022-11-14T04:22:01.104Z,8.25
2022-11-14T04:24:27.491Z,8.28
2022-11-14T04:26:53.707Z,8.31
2022-11-14T04:29:19.930Z,8.29
2022-11-14T04:31:46.149Z,8.20
2022-11-14T04:34:12.488Z,8.17
2022-11-14T04:36:38.710Z,8.20
2022-11-14T04:39:05.057Z,8.28
2022-11-14T04:41:31.301Z,8.26
2022-11-14T04:43:57.608Z,8.25
2022-11-14T04:46:23.899Z,8.26
2022-11-14T04:48:50.141Z,8.21
2022-11-14T04:51:16.449Z,8.20
2022-11-14T04:53:42.773Z,8.25
2022-11-14T04:56:09.049Z,8.25
2022-11-14T04:58:35.346Z,8.21
2022-11-14T05:01:03.188Z,8.21
2022-11-14T05:03:29.605Z,8.10
2022-11-14T05:05:55.913Z,8.09
2022-11-14T05:08:22.192Z,8.18
2022-11-14T05:10:48.540Z,8.19
2022-11-14T05:13:14.861Z,8.09
2022-11-14T05:15:41.184Z,8.13
2022-11-14T05:18:07.486Z,8.06
2022-11-14T05:20:33.765Z,8.02
2022-11-14T05:23:00.049Z,8.06
2022-11-14T05:25:26.354Z,8.00
2022-11-14T05:27:52.686Z,7.98
2022-11-14T05:30:18.901Z,8.00
2022-11-14T05:32:45.158Z,7.89
2022-11-14T05:35:11.444Z,7.84
2022-11-14T05:37:37.655Z,7.77
2022-11-14T05:40:03.868Z,7.74
2022-11-14T05:42:33.048Z,7.79
2022-11-14T05:44:59.386Z,7.61
2022-11-14T05:47:25.713Z,7.69
2022-11-14T05:49:51.940Z,7.60
2022-11-14T05:52:18.164Z,7.51
2022-11-14T05:54:44.382Z,7.43
2022-11-14T05:57:10.603Z,7.44
2022-11-14T05:59:36.832Z,7.45
2022-11-14T06:02:03.107Z,7.53
2022-11-14T06:04:29.480Z,7.41
2022-11-14T06:06:55.746Z,7.39
2022-11-14T06:09:21.992Z,7.45
2022-11-14T06:11:48.216Z,7.50
2022-11-14T06:14:14.448Z,7.36
2022-11-14T06:16:40.670Z,7.42
2022-11-14T06:19:06.957Z,7.42
2022-11-14T06:21:33.274Z,7.45
2022-11-14T06:24:03.033Z,7.39
2022-11-14T06:26:32.348Z,7.32
2022-11-14T06:28:58.600Z,7.18
2022-11-14T06:31:24.902Z,7.30
2022-11-14T06:33:54.771Z,7.35
2022-11-14T06:36:20.976Z,7.35
2022-11-14T06:38:47.198Z,7.59
2022-11-14T06:41:13.413Z,7.55
2022-11-14T06:43:39.639Z,7.57
2022-11-14T06:46:05.882Z,7.74
2022-11-14T06:48:32.617Z,7.73
2022-11-14T06:50:59.005Z,7.78
2022-11-14T06:53:25.372Z,7.95
2022-11-14T06:55:51.624Z,7.94
2022-11-14T06:58:17.838Z,8.08
2022-11-14T07:00:44.118Z,8.12
2022-11-14T07:03:10.486Z,8.16
2022-11-14T07:05:36.738Z,8.18
2022-11-14T07:08:03.452Z,8.22
2022-11-14T07:10:29.790Z,8.34
2022-11-14T07:12:56.080Z,8.41
2022-11-14T07:15:22.405Z,8.60
2022-11-14T07:17:48.633Z,8.70
2022-11-14T07:20:15.112Z,8.80
2022-11-14T07:22:41.375Z,8.82
2022-11-14T07:25:07.640Z,8.88
2022-11-14T07:27:33.985Z,8.92
2022-11-14T07:30:00.344Z,9.09
2022-11-14T07:32:26.625Z,9.11
2022-11-14T07:34:55.712Z,9.13
2022-11-14T07:37:24.359Z,9.28
2022-11-14T07:39:50.668Z,9.27
2022-11-14T07:42:17.029Z,9.31
2022-11-14T07:44:43.250Z,9.36
2022-11-14T07:47:09.624Z,9.43
2022-11-14T07:49:36.189Z,9.48
2022-11-14T07:52:02.482Z,9.58
2022-11-14T07:54:28.920Z,9.73
2022-11-14T07:56:55.315Z,9.83
2022-11-14T07:59:21.752Z,9.92
2022-11-14T08:01:48.015Z,9.90
2022-11-14T08:04:14.285Z,10.03
2022-11-14T08:06:40.573Z,10.06
2022-11-14T08:09:06.847Z,10.17
2022-11-14T08:11:48.472Z,10.27
2022-11-14T08:14:14.766Z,10.39
2022-11-14T08:16:41.067Z,10.40
2022-11-14T08:19:07.391Z,10.55
2022-11-14T08:21:33.757Z,10.61
2022-11-14T08:24:00.081Z,10.77
2022-11-14T08:26:30.171Z,10.79
2022-11-14T08:29:00.281Z,10.89
2022-11-14T08:31:27.046Z,10.81
2022-11-14T08:33:53.322Z,11.11
2022-11-14T08:36:19.617Z,11.32
2022-11-14T08:38:45.916Z,11.34
2022-11-14T08:41:12.212Z,11.47
2022-11-14T08:43:38.510Z,11.77
2022-11-14T08:46:05.048Z,11.87
2022-11-14T08:48:31.736Z,12.00
2022-11-14T08:50:58.438Z,11.98
2022-11-14T08:53:24.809Z,12.03
2022-11-14T08:55:51.114Z,12.11
2022-11-14T08:58:17.396Z,12.03
2022-11-14T09:00:43.693Z,12.13
2022-11-14T09:03:10.027Z,12.24
2022-11-14T09:05:36.390Z,12.30
2022-11-14T09:08:02.720Z,12.37
2022-11-14T09:10:29.013Z,12.47
2022-11-14T09:12:55.304Z,12.62
2022-11-14T09:15:21.612Z,12.68
2022-11-14T09:17:48.223Z,12.79
2022-11-14T09:20:14.507Z,12.87
2022-11-14T09:22:40.838Z,13.00
2022-11-14T09:25:07.107Z,13.10
2022-11-14T09:27:33.397Z,13.21
2022-11-14T09:29:59.678Z,13.37
2022-11-14T09:32:26.068Z,13.54
2022-11-14T09:34:52.342Z,13.60
2022-11-14T09:37:18.635Z,13.57
2022-11-14T09:39:44.915Z,13.57
2022-11-14T09:42:16.750Z,13.52
2022-11-14T09:44:43.534Z,13.62
2022-11-14T09:47:09.828Z,13.76
2022-11-14T09:49:36.157Z,13.71
2022-11-14T09:52:04.367Z,13.66
2022-11-14T09:54:30.637Z,13.83
2022-11-14T09:56:57.109Z,13.94
2022-11-14T09:59:23.447Z,13.95
2022-11-14T10:01:49.794Z,14.07
2022-11-14T10:04:16.179Z,14.11
2022-11-14T10:06:42.471Z,14.24
2022-11-14T10:09:08.851Z,14.33
2022-11-14T10:11:36.269Z,14.33
2022-11-14T10:14:02.606Z,14.41
2022-11-14T10:16:28.910Z,14.40
2022-11-14T10:18:55.245Z,14.50
2022-11-14T10:21:21.588Z,14.50
2022-11-14T10:23:47.852Z,14.60
2022-11-14T10:26:14.142Z,14.71
2022-11-14T10:28:41.043Z,14.80
2022-11-14T10:31:07.529Z,15.08
2022-11-14T10:33:33.819Z,15.15
2022-11-14T10:36:00.108Z,15.11
2022-11-14T10:38:26.440Z,15.14
2022-11-14T10:40:52.761Z,15.07
2022-11-14T10:43:19.103Z,15.13
2022-11-14T10:45:45.455Z,15.20
2022-11-14T10:48:11.798Z,15.27
2022-11-14T10:50:38.312Z,15.25
2022-11-14T10:53:04.664Z,15.25
2022-11-14T10:56:02.441Z,15.12
2022-11-14T10:58:17.233Z,15.17
2022-11-14T11:00:43.567Z,15.13
2022-11-14T11:03:09.880Z,15.04
2022-11-14T11:05:36.163Z,14.98
2022-11-14T11:08:41.909Z,15.01
2022-11-14T11:11:26.495Z,15.02
2022-11-14T11:13:53.110Z,15.11
2022-11-14T11:16:19.444Z,15.04
2022-11-14T11:18:50.569Z,15.02
2022-11-14T11:21:17.352Z,14.98
2022-11-14T11:23:43.670Z,15.03
2022-11-14T11:26:10.111Z,15.09
2022-11-14T11:28:36.409Z,14.97
2022-11-14T11:31:02.857Z,15.13
2022-11-14T11:33:29.735Z,15.04
2022-11-14T11:35:56.729Z,15.10
2022-11-14T11:38:23.055Z,15.08
2022-11-14T11:40:49.346Z,15.08
2022-11-14T11:46:01.881Z,15.13
2022-11-14T11:48:28.339Z,15.01
2022-11-14T11:50:54.799Z,15.05
2022-11-14T11:53:21.213Z,15.03
2022-11-14T11:55:47.620Z,15.04
2022-11-14T11:58:13.923Z,15.24
2022-11-14T12:00:40.278Z,15.25
2022-11-14T12:03:06.673Z,15.75
2022-11-14T12:05:33.194Z,15.97
2022-11-14T12:07:59.521Z,15.74
2022-11-14T12:10:25.803Z,15.56
2022-11-14T12:12:52.155Z,15.23
2022-11-14T12:15:18.419Z,15.28
2022-11-14T12:17:44.707Z,15.22
2022-11-14T12:20:10.997Z,15.05
2022-11-14T12:25:27.211Z,15.07
2022-11-14T12:27:53.756Z,15.08
2022-11-14T12:30:21.898Z,15.03
2022-11-14T12:32:48.215Z,14.97
2022-11-14T12:35:14.613Z,14.84
2022-11-14T12:37:41.019Z,14.89
2022-11-14T12:40:07.372Z,14.87
2022-11-14T12:42:33.877Z,14.78
2022-11-14T12:45:00.397Z,14.76
2022-11-14T12:47:26.706Z,14.82
2022-11-14T12:49:53.010Z,14.56
2022-11-14T12:52:19.282Z,14.64
2022-11-14T12:54:45.675Z,14.60
2022-11-14T12:57:31.959Z,14.34
2022-11-14T12:59:58.300Z,14.16
2022-11-14T13:02:24.596Z,14.12
2022-11-14T13:04:50.874Z,14.01
2022-11-14T13:07:17.342Z,13.87
2022-11-14T13:09:43.868Z,13.77
2022-11-14T13:12:28.908Z,13.65
2022-11-14T13:15:13.732Z,13.49
2022-11-14T13:17:58.879Z,13.54
2022-11-14T13:20:43.683Z,13.35
2022-11-14T13:23:09.996Z,13.25
2022-11-14T13:25:36.296Z,13.28
2022-11-14T13:28:16.661Z,13.20
2022-11-14T13:30:48.246Z,13.18
2022-11-14T13:33:14.556Z,13.01
2022-11-14T13:35:41.134Z,13.08
2022-11-14T13:38:07.492Z,12.97
2022-11-14T13:40:33.786Z,12.97
2022-11-14T13:43:00.420Z,12.97
2022-11-14T13:45:26.709Z,12.85
2022-11-14T13:47:53.005Z,12.85
2022-11-14T13:50:19.324Z,12.79
2022-11-14T13:52:45.760Z,12.62
2022-11-14T13:55:12.041Z,12.57
2022-11-14T13:57:38.370Z,12.55
2022-11-14T14:00:07.006Z,12.53
2022-11-14T14:02:33.290Z,12.45
2022-11-14T14:04:59.668Z,12.42
2022-11-14T14:07:26.129Z,12.36
2022-11-14T14:09:52.490Z,12.27
2022-11-14T14:12:18.762Z,12.19
